createdAt,value
2022-11-12T00:00:16.045Z,7.11
2022-11-12T00:01:16.004Z,7.14
2022-11-12T00:02:15.970Z,7.14
2022-11-12T00:03:15.937Z,7.12
2022-11-12T00:04:15.759Z,7.09
2022-11-12T00:05:15.804Z,7.16
2022-11-12T00:06:15.630Z,7.19
2022-11-12T00:07:15.621Z,7.14
2022-11-12T00:08:15.503Z,7.14
2022-11-12T00:09:15.528Z,7.18
2022-11-12T00:10:15.364Z,7.11
2022-11-12T00:11:15.315Z,7.19
2022-11-12T00:12:15.273Z,7.27
2022-11-12T00:13:15.195Z,7.34
2022-11-12T00:14:15.099Z,7.34
2022-11-12T00:15:15.033Z,7.29
2022-11-12T00:16:15.032Z,7.37
2022-11-12T00:17:14.896Z,7.37
2022-11-12T00:18:15.031Z,7.33
2022-11-12T00:19:14.780Z,7.30
2022-11-12T00:20:14.690Z,7.32
2022-11-12T00:21:14.715Z,7.30
2022-11-12T00:22:14.567Z,7.34
2022-11-12T00:23:14.516Z,7.24
2022-11-12T00:24:14.449Z,7.33
2022-11-12T00:25:14.349Z,7.24
2022-11-12T00:26:14.280Z,7.19
2022-11-12T00:27:14.238Z,7.23
2022-11-12T00:28:14.156Z,7.27
2022-11-12T00:29:14.112Z,7.30
2022-11-12T00:30:14.018Z,7.33
2022-11-12T00:31:13.971Z,7.48
2022-11-12T00:32:13.895Z,7.47
2022-11-12T00:33:13.819Z,7.37
2022-11-12T00:34:13.794Z,7.45
2022-11-12T00:35:14.237Z,7.33
2022-11-12T00:36:13.622Z,7.36
2022-11-12T00:37:13.646Z,7.37
2022-11-12T00:38:13.510Z,7.34
2022-11-12T00:39:13.426Z,7.33
2022-11-12T00:40:13.375Z,7.39
2022-11-12T00:41:13.312Z,7.33
2022-11-12T00:42:13.207Z,7.37
2022-11-12T00:43:13.142Z,7.32
2022-11-12T00:44:13.078Z,7.45
2022-11-12T00:45:13.015Z,7.33
2022-11-12T00:46:12.955Z,7.41
2022-11-12T00:47:12.871Z,7.45
2022-11-12T00:48:12.872Z,7.32
2022-11-12T00:49:12.753Z,7.27
2022-11-12T00:50:12.675Z,7.30
2022-11-12T00:51:12.622Z,7.23
2022-11-12T00:52:12.538Z,7.26
2022-11-12T00:53:12.602Z,7.27
2022-11-12T00:54:12.409Z,7.21
2022-11-12T00:55:12.371Z,7.21
2022-11-12T00:56:12.292Z,7.26
2022-11-12T00:57:12.247Z,7.33
2022-11-12T00:58:12.131Z,7.24
2022-11-12T00:59:12.070Z,7.26
2022-11-12T01:00:12.027Z,7.26
2022-11-12T01:01:11.996Z,7.19
2022-11-12T01:02:11.881Z,7.18
2022-11-12T01:03:11.817Z,7.23
2022-11-12T01:04:11.779Z,7.14
2022-11-12T01:05:11.689Z,7.24
2022-11-12T01:06:11.647Z,7.27
2022-11-12T01:07:11.622Z,7.32
2022-11-12T01:08:11.485Z,7.37
2022-11-12T01:09:11.487Z,7.39
2022-11-12T01:10:11.340Z,7.50
2022-11-12T01:11:11.278Z,7.41
2022-11-12T01:12:11.194Z,7.45
2022-11-12T01:13:11.141Z,7.48
2022-11-12T01:14:11.096Z,7.54
2022-11-12T01:15:11.014Z,7.47
2022-11-12T01:16:10.946Z,7.47
2022-11-12T01:17:10.890Z,7.44
2022-11-12T01:18:10.870Z,7.50
2022-11-12T01:19:10.747Z,7.33
2022-11-12T01:20:10.654Z,7.27
2022-11-12T01:21:10.622Z,7.37
2022-11-12T01:22:10.538Z,7.39
2022-11-12T01:23:10.464Z,7.37
2022-11-12T01:24:10.389Z,7.27
2022-11-12T01:25:10.457Z,7.37
2022-11-12T01:26:10.310Z,7.23
2022-11-12T01:27:10.196Z,7.23
2022-11-12T01:28:10.112Z,7.19
2022-11-12T01:29:10.070Z,7.23
2022-11-12T01:30:10.002Z,7.21
2022-11-12T01:31:09.965Z,7.12
2022-11-12T01:32:09.872Z,7.12
2022-11-12T01:33:09.811Z,7.09
2022-11-12T01:34:09.777Z,7.12
2022-11-12T01:35:09.651Z,7.12
2022-11-12T01:36:09.630Z,7.16
2022-11-12T01:37:09.510Z,7.18
2022-11-12T01:38:09.447Z,7.18
2022-11-12T01:39:09.377Z,7.21
2022-11-12T01:40:09.337Z,7.19
2022-11-12T01:41:09.354Z,7.24
2022-11-12T01:42:09.230Z,7.24
2022-11-12T01:43:09.187Z,7.26
2022-11-12T01:44:09.045Z,7.21
2022-11-12T01:45:08.981Z,7.26
2022-11-12T01:46:08.908Z,7.16
2022-11-12T01:47:08.884Z,7.12
2022-11-12T01:48:08.791Z,7.12
2022-11-12T01:49:08.721Z,7.01
2022-11-12T01:50:09.112Z,7.01
2022-11-12T01:51:08.572Z,7.01
2022-11-12T01:52:08.511Z,7.00
2022-11-12T01:53:08.447Z,7.11
2022-11-12T01:54:08.368Z,7.07
2022-11-12T01:55:08.302Z,7.11
2022-11-12T01:56:08.241Z,7.12
2022-11-12T01:57:08.273Z,7.12
2022-11-12T01:58:08.246Z,7.12
2022-11-12T01:59:08.076Z,7.09
2022-11-12T02:00:07.975Z,7.09
2022-11-12T02:01:08.034Z,7.11
2022-11-12T02:02:07.840Z,7.12
2022-11-12T02:03:07.784Z,7.08
2022-11-12T02:04:07.753Z,7.12
2022-11-12T02:05:07.624Z,7.14
2022-11-12T02:06:07.619Z,7.09
2022-11-12T02:07:07.719Z,7.00
2022-11-12T02:08:07.427Z,6.99
2022-11-12T02:09:07.387Z,6.97
2022-11-12T02:10:07.346Z,7.00
2022-11-12T02:11:07.230Z,7.14
2022-11-12T02:12:07.159Z,7.09
2022-11-12T02:13:07.189Z,7.08
2022-11-12T02:14:07.021Z,7.14
2022-11-12T02:15:07.069Z,7.08
2022-11-12T02:16:06.921Z,7.08
2022-11-12T02:17:06.839Z,7.08
2022-11-12T02:18:06.768Z,7.00
2022-11-12T02:19:06.725Z,7.00
2022-11-12T02:20:06.659Z,7.01
2022-11-12T02:21:06.559Z,6.97
2022-11-12T02:22:06.498Z,6.99
2022-11-12T02:23:06.416Z,6.91
2022-11-12T02:24:06.362Z,6.91
2022-11-12T02:25:06.294Z,6.90
2022-11-12T02:26:06.216Z,6.89
2022-11-12T02:27:06.305Z,6.78
2022-11-12T02:28:06.076Z,6.87
2022-11-12T02:29:06.109Z,6.64
2022-11-12T02:30:05.946Z,6.61
2022-11-12T02:31:05.909Z,6.79
2022-11-12T02:32:05.869Z,6.69
2022-11-12T02:33:05.752Z,6.65
2022-11-12T02:34:05.675Z,6.76
2022-11-12T02:35:05.635Z,6.65
2022-11-12T02:36:05.543Z,6.65
2022-11-12T02:37:05.477Z,6.60
2022-11-12T02:38:05.413Z,6.60
2022-11-12T02:39:05.367Z,6.60
2022-11-12T02:40:05.282Z,6.63
2022-11-12T02:41:05.216Z,6.68
2022-11-12T02:42:05.152Z,6.63
2022-11-12T02:43:05.105Z,6.55
2022-11-12T02:44:05.014Z,6.55
2022-11-12T02:45:05.028Z,6.50
2022-11-12T02:46:04.891Z,6.51
2022-11-12T02:47:04.804Z,6.58
2022-11-12T02:48:04.742Z,6.55
2022-11-12T02:49:04.725Z,6.60
2022-11-12T02:50:04.743Z,6.60
2022-11-12T02:51:04.532Z,6.64
2022-11-12T02:52:04.466Z,6.57
2022-11-12T02:53:04.459Z,6.64
2022-11-12T02:54:04.341Z,6.64
2022-11-12T02:55:04.255Z,6.45
2022-11-12T02:56:04.246Z,6.50
2022-11-12T02:57:04.275Z,6.50
2022-11-12T02:58:04.130Z,6.50
2022-11-12T02:59:04.008Z,6.53
2022-11-12T03:00:03.995Z,6.38
2022-11-12T03:01:04.078Z,6.45
2022-11-12T03:02:03.826Z,6.33
2022-11-12T03:03:03.729Z,6.48
2022-11-12T03:04:03.715Z,6.42
2022-11-12T03:05:03.613Z,6.39
2022-11-12T03:06:03.583Z,6.40
2022-11-12T03:07:03.578Z,6.38
2022-11-12T03:08:03.401Z,6.38
2022-11-12T03:09:03.318Z,6.30
2022-11-12T03:10:03.302Z,6.35
2022-11-12T03:11:03.296Z,6.38
2022-11-12T03:12:03.110Z,6.27
2022-11-12T03:13:03.056Z,6.35
2022-11-12T03:14:02.976Z,6.40
2022-11-12T03:15:02.937Z,6.43
2022-11-12T03:16:02.865Z,6.27
2022-11-12T03:17:02.876Z,6.32
2022-11-12T03:18:02.716Z,6.35
2022-11-12T03:19:03.010Z,6.38
2022-11-12T03:20:02.586Z,6.24
2022-11-12T03:21:02.523Z,6.20
2022-11-12T03:22:02.438Z,6.16
2022-11-12T03:23:02.374Z,6.20
2022-11-12T03:24:02.311Z,6.25
2022-11-12T03:25:02.250Z,6.20
2022-11-12T03:26:02.178Z,6.28
2022-11-12T03:27:02.123Z,6.33
2022-11-12T03:28:02.029Z,6.27
2022-11-12T03:29:01.962Z,6.38
2022-11-12T03:30:01.924Z,6.21
2022-11-12T03:31:01.854Z,6.24
2022-11-12T03:32:01.817Z,6.14
2022-11-12T03:33:01.797Z,5.96
2022-11-12T03:34:01.652Z,6.01
2022-11-12T03:35:01.564Z,5.96
2022-11-12T03:36:01.512Z,5.88
2022-11-12T03:37:01.435Z,5.90
2022-11-12T03:38:01.355Z,5.92
2022-11-12T03:39:01.284Z,5.90
2022-11-12T03:40:01.250Z,5.87
2022-11-12T03:41:01.167Z,5.85
2022-11-12T03:42:01.087Z,5.81
2022-11-12T03:43:01.044Z,5.77
2022-11-12T03:44:00.946Z,5.67
2022-11-12T03:45:00.891Z,5.77
2022-11-12T03:46:00.836Z,5.83
2022-11-12T03:47:00.746Z,5.80
2022-11-12T03:48:00.701Z,5.83
2022-11-12T03:49:00.744Z,5.83
2022-11-12T03:50:00.545Z,5.69
2022-11-12T03:51:00.509Z,5.65
2022-11-12T03:52:00.438Z,5.63
2022-11-12T03:53:00.357Z,5.60
2022-11-12T03:54:00.273Z,5.63
2022-11-12T03:55:00.229Z,5.60
2022-11-12T03:56:00.169Z,5.70
2022-11-12T03:57:00.083Z,5.70
2022-11-12T03:58:00.006Z,5.58
2022-11-12T03:58:59.977Z,5.58
2022-11-12T03:59:59.908Z,5.48
2022-11-12T04:00:59.825Z,5.47
2022-11-12T04:01:59.731Z,5.47
2022-11-12T04:02:59.670Z,5.27
2022-11-12T04:03:59.591Z,5.26
2022-11-12T04:04:59.621Z,5.35
2022-11-12T04:05:59.455Z,5.30
2022-11-12T04:06:59.423Z,5.32
2022-11-12T04:07:59.328Z,5.44
2022-11-12T04:08:59.251Z,5.32
2022-11-12T04:09:59.185Z,5.24
2022-11-12T04:10:59.122Z,5.37
2022-11-12T04:11:59.064Z,5.27
2022-11-12T04:12:59.000Z,5.41
2022-11-12T04:13:58.918Z,5.41
2022-11-12T04:14:58.856Z,5.29
2022-11-12T04:15:58.784Z,5.15
2022-11-12T04:16:58.708Z,5.20
2022-11-12T04:17:58.659Z,5.14
2022-11-12T04:18:58.579Z,5.17
2022-11-12T04:19:58.511Z,5.24
2022-11-12T04:20:58.536Z,5.15
2022-11-12T04:21:58.407Z,5.15
2022-11-12T04:22:58.317Z,5.23
2022-11-12T04:23:58.302Z,5.11
2022-11-12T04:24:58.169Z,5.14
2022-11-12T04:25:58.105Z,5.05
2022-11-12T04:26:58.050Z,5.12
2022-11-12T04:27:57.987Z,5.06
2022-11-12T04:28:57.891Z,5.06
2022-11-12T04:29:57.847Z,5.08
2022-11-12T04:30:57.764Z,4.96
2022-11-12T04:31:57.686Z,4.96
2022-11-12T04:32:57.656Z,5.11
2022-11-12T04:33:57.564Z,4.91
2022-11-12T04:34:57.518Z,4.96
2022-11-12T04:35:57.418Z,4.96
2022-11-12T04:36:57.442Z,5.01
2022-11-12T04:37:57.291Z,4.87
2022-11-12T04:38:57.236Z,4.88
2022-11-12T04:39:57.147Z,4.93
2022-11-12T04:40:57.087Z,4.91
2022-11-12T04:41:57.019Z,4.93
2022-11-12T04:42:57.071Z,4.88
2022-11-12T04:43:56.890Z,4.75
2022-11-12T04:44:56.820Z,4.77
2022-11-12T04:45:56.739Z,4.69
2022-11-12T04:46:56.671Z,4.69
2022-11-12T04:47:56.616Z,4.62
2022-11-12T04:48:56.539Z,4.67
2022-11-12T04:49:56.482Z,4.65
2022-11-12T04:50:56.399Z,4.62
2022-11-12T04:51:56.334Z,4.67
2022-11-12T04:52:56.381Z,4.75
2022-11-12T04:53:56.187Z,4.88
2022-11-12T04:54:56.133Z,4.96
2022-11-12T04:55:56.078Z,5.08
2022-11-12T04:56:55.993Z,5.15
2022-11-12T04:58:00.427Z,5.06
2022-11-12T04:58:55.846Z,5.06
2022-11-12T04:59:55.786Z,5.09
2022-11-12T05:00:55.879Z,5.04
2022-11-12T05:01:55.703Z,4.96
2022-11-12T05:02:55.570Z,5.05
2022-11-12T05:03:55.503Z,5.05
2022-11-12T05:04:55.446Z,5.08
2022-11-12T05:05:55.371Z,5.05
2022-11-12T05:06:55.391Z,5.05
2022-11-12T05:07:55.252Z,4.97
2022-11-12T05:08:55.259Z,4.79
2022-11-12T05:09:55.097Z,4.83
2022-11-12T05:10:55.048Z,4.79
2022-11-12T05:11:54.956Z,4.83
2022-11-12T05:12:54.898Z,4.79
2022-11-12T05:13:54.818Z,4.77
2022-11-12T05:14:54.762Z,4.72
2022-11-12T05:15:54.699Z,4.71
2022-11-12T05:16:54.616Z,4.74
2022-11-12T05:17:54.555Z,4.72
2022-11-12T05:18:54.485Z,4.79
2022-11-12T05:19:54.420Z,4.77
2022-11-12T05:20:54.370Z,4.68
2022-11-12T05:21:54.273Z,4.74
2022-11-12T05:23:06.194Z,4.71
2022-11-12T05:23:54.141Z,4.71
2022-11-12T05:24:54.160Z,4.71
2022-11-12T05:25:54.010Z,4.64
2022-11-12T05:26:53.953Z,4.64
2022-11-12T05:27:53.863Z,4.69
2022-11-12T05:28:53.792Z,4.62
2022-11-12T05:29:53.754Z,4.65
2022-11-12T05:30:53.662Z,4.61
2022-11-12T05:31:53.594Z,4.57
2022-11-12T05:32:53.522Z,4.67
2022-11-12T05:33:53.459Z,4.65
2022-11-12T05:34:53.393Z,4.68
2022-11-12T05:35:53.314Z,4.59
2022-11-12T05:36:53.276Z,4.67
2022-11-12T05:37:53.179Z,4.53
2022-11-12T05:38:53.135Z,4.56
2022-11-12T05:39:53.053Z,4.56
2022-11-12T05:40:53.064Z,4.67
2022-11-12T05:42:12.063Z,4.68
2022-11-12T05:42:52.848Z,4.64
2022-11-12T05:43:52.770Z,4.65
2022-11-12T05:44:52.710Z,4.56
2022-11-12T05:45:52.634Z,4.67
2022-11-12T05:46:52.568Z,4.71
2022-11-12T05:47:52.496Z,4.62
2022-11-12T05:48:52.448Z,4.53
2022-11-12T05:49:52.362Z,4.47
2022-11-12T05:51:12.122Z,4.46
2022-11-12T05:51:52.234Z,4.44
2022-11-12T05:52:52.157Z,4.46
2022-11-12T05:53:52.143Z,4.46
2022-11-12T05:54:52.015Z,4.38
2022-11-12T05:55:51.975Z,4.47
2022-11-12T05:56:51.973Z,4.47
2022-11-12T05:57:51.823Z,4.50
2022-11-12T05:58:51.732Z,4.54
2022-11-12T05:59:51.680Z,4.50
2022-11-12T06:00:51.609Z,4.47
2022-11-12T06:01:51.531Z,4.44
2022-11-12T06:02:51.489Z,4.32
2022-11-12T06:03:51.425Z,4.42
2022-11-12T06:04:51.334Z,4.49
2022-11-12T06:05:51.254Z,4.43
2022-11-12T06:06:51.240Z,4.34
2022-11-12T06:07:51.138Z,4.43
2022-11-12T06:08:51.069Z,4.49
2022-11-12T06:09:50.990Z,4.42
2022-11-12T06:10:50.915Z,4.31
2022-11-12T06:11:50.864Z,4.42
2022-11-12T06:12:50.886Z,4.31
2022-11-12T06:13:50.718Z,4.42
2022-11-12T06:14:50.637Z,4.34
2022-11-12T06:15:50.601Z,4.32
2022-11-12T06:16:50.500Z,4.25
2022-11-12T06:17:50.432Z,4.24
2022-11-12T06:18:50.376Z,4.34
2022-11-12T06:19:50.309Z,4.24
2022-11-12T06:20:50.233Z,4.20
2022-11-12T06:21:50.158Z,4.17
2022-11-12T06:22:50.092Z,4.21
2022-11-12T06:23:50.025Z,4.21
2022-11-12T06:24:49.958Z,4.18
2022-11-12T06:25:49.947Z,4.24
2022-11-12T06:26:49.815Z,4.14
2022-11-12T06:27:49.772Z,4.26
2022-11-12T06:28:49.830Z,4.17
2022-11-12T06:29:49.683Z,4.31
2022-11-12T06:30:49.555Z,4.47
2022-11-12T06:31:49.502Z,4.54
2022-11-12T06:32:49.417Z,4.51
2022-11-12T06:33:49.407Z,4.50
2022-11-12T06:34:49.381Z,4.50
2022-11-12T06:35:49.246Z,4.54
2022-11-12T06:36:49.139Z,4.51
2022-11-12T06:37:49.071Z,4.57
2022-11-12T06:38:49.029Z,4.67
2022-11-12T06:39:48.941Z,4.54
2022-11-12T06:40:48.857Z,4.65
2022-11-12T06:41:48.793Z,4.57
2022-11-12T06:42:48.750Z,4.53
2022-11-12T06:43:48.659Z,4.57
2022-11-12T06:44:48.669Z,4.64
2022-11-12T06:45:48.560Z,4.57
2022-11-12T06:46:48.475Z,4.68
2022-11-12T06:47:48.399Z,4.64
2022-11-12T06:48:48.315Z,4.65
2022-11-12T06:49:48.254Z,4.62
2022-11-12T06:50:48.175Z,4.68
2022-11-12T06:51:48.107Z,4.67
2022-11-12T06:52:48.031Z,4.68
2022-11-12T06:53:47.992Z,4.59
2022-11-12T06:54:47.903Z,4.68
2022-11-12T06:55:47.844Z,4.74
2022-11-12T06:56:47.769Z,4.83
2022-11-12T06:57:47.705Z,4.87
2022-11-12T06:58:47.633Z,5.08
2022-11-12T06:59:47.555Z,5.08
2022-11-12T07:00:47.580Z,5.08
2022-11-12T07:01:47.459Z,5.20
2022-11-12T07:02:47.346Z,5.14
2022-11-12T07:03:47.367Z,5.22
2022-11-12T07:04:47.214Z,5.26
2022-11-12T07:05:47.163Z,5.29
2022-11-12T07:06:47.149Z,5.24
2022-11-12T07:07:47.019Z,5.32
2022-11-12T07:08:46.933Z,5.38
2022-11-12T07:09:46.871Z,5.42
2022-11-12T07:10:46.811Z,5.44
2022-11-12T07:11:46.732Z,5.44
2022-11-12T07:12:52.022Z,5.42
2022-11-12T07:13:46.605Z,5.44
2022-11-12T07:14:46.573Z,5.40
2022-11-12T07:15:46.462Z,5.41
2022-11-12T07:16:46.498Z,5.55
2022-11-12T07:17:46.326Z,5.52
2022-11-12T07:18:46.276Z,5.66
2022-11-12T07:19:46.200Z,5.63
2022-11-12T07:20:46.160Z,5.63
2022-11-12T07:21:46.057Z,5.70
2022-11-12T07:22:45.999Z,5.77
2022-11-12T07:23:45.954Z,5.78
2022-11-12T07:24:45.850Z,5.77
2022-11-12T07:25:45.812Z,5.81
2022-11-12T07:26:47.629Z,5.92
2022-11-12T07:27:45.684Z,5.95
2022-11-12T07:28:45.601Z,6.02
2022-11-12T07:29:48.442Z,6.17
2022-11-12T07:30:45.458Z,6.21
2022-11-12T07:31:45.414Z,6.28
2022-11-12T07:32:50.831Z,6.30
2022-11-12T07:33:45.254Z,6.39
2022-11-12T07:34:45.180Z,6.46
2022-11-12T07:35:45.114Z,6.48
2022-11-12T07:36:45.048Z,6.50
2022-11-12T07:37:44.997Z,6.64
2022-11-12T07:38:44.927Z,6.61
2022-11-12T07:39:44.852Z,6.76
2022-11-12T07:40:44.793Z,6.76
2022-11-12T07:41:44.728Z,6.78
2022-11-12T07:42:44.642Z,6.89
2022-11-12T07:43:44.593Z,7.00
2022-11-12T07:44:44.548Z,7.18
2022-11-12T07:45:44.454Z,7.19
2022-11-12T07:46:44.549Z,7.19
2022-11-12T07:47:44.309Z,7.45
2022-11-12T07:48:44.356Z,7.55
2022-11-12T07:49:44.196Z,7.58
2022-11-12T07:50:44.137Z,7.77
2022-11-12T07:51:44.063Z,7.99
2022-11-12T07:52:43.989Z,8.07
2022-11-12T07:53:43.926Z,8.36
2022-11-12T07:54:43.856Z,8.32
2022-11-12T07:55:43.802Z,8.75
2022-11-12T07:56:43.730Z,8.70
2022-11-12T07:57:43.650Z,8.63
2022-11-12T07:58:43.590Z,8.71
2022-11-12T07:59:46.352Z,8.70
2022-11-12T08:00:43.466Z,8.61
2022-11-12T08:01:43.467Z,8.71
2022-11-12T08:02:43.363Z,8.80
2022-11-12T08:03:43.295Z,8.76
2022-11-12T08:04:43.305Z,8.79
2022-11-12T08:05:43.133Z,8.83
2022-11-12T08:06:43.303Z,8.89
2022-11-12T08:07:43.178Z,8.98
2022-11-12T08:08:42.945Z,9.06
2022-11-12T08:09:42.895Z,9.31
2022-11-12T08:10:42.818Z,9.60
2022-11-12T08:11:42.758Z,9.63
2022-11-12T08:12:42.701Z,9.81
2022-11-12T08:13:42.625Z,9.67
2022-11-12T08:14:42.632Z,9.78
2022-11-12T08:15:42.520Z,9.60
2022-11-12T08:16:42.449Z,9.55
2022-11-12T08:17:42.381Z,9.55
2022-11-12T08:18:42.345Z,9.45
2022-11-12T08:19:42.265Z,9.44
2022-11-12T08:20:42.287Z,9.52
2022-11-12T08:21:42.120Z,9.52
2022-11-12T08:22:47.922Z,9.77
2022-11-12T08:23:41.999Z,9.68
2022-11-12T08:24:41.947Z,10.04
2022-11-12T08:25:41.880Z,10.38
2022-11-12T08:26:41.812Z,10.63
2022-11-12T08:27:41.753Z,10.91
2022-11-12T08:28:41.714Z,11.12
2022-11-12T08:29:41.672Z,11.31
2022-11-12T08:30:41.561Z,11.46
2022-11-12T08:31:41.530Z,11.79
2022-11-12T08:32:41.434Z,12.12
2022-11-12T08:33:41.380Z,12.29
2022-11-12T08:34:41.395Z,12.66
2022-11-12T08:35:41.242Z,12.76
2022-11-12T08:36:41.280Z,12.95
2022-11-12T08:37:41.171Z,13.06
2022-11-12T08:38:41.091Z,12.87
2022-11-12T08:39:41.013Z,12.84
2022-11-12T08:40:40.995Z,12.80
2022-11-12T08:41:40.897Z,12.81
2022-11-12T08:42:40.840Z,12.76
2022-11-12T08:43:40.788Z,12.58
2022-11-12T08:44:40.705Z,12.61
2022-11-12T08:45:40.654Z,12.51
2022-11-12T08:46:40.602Z,12.51
2022-11-12T08:47:40.551Z,12.38
2022-11-12T08:48:40.464Z,12.31
2022-11-12T08:49:43.782Z,12.23
2022-11-12T08:50:40.357Z,12.23
2022-11-12T08:51:40.378Z,12.38
2022-11-12T08:52:40.322Z,12.36
2022-11-12T08:53:40.167Z,12.22
2022-11-12T08:54:40.105Z,12.18
2022-11-12T08:55:40.064Z,12.15
2022-11-12T08:56:39.987Z,12.11
2022-11-12T08:57:39.921Z,11.97
2022-11-12T08:58:39.868Z,12.36
2022-11-12T08:59:39.802Z,12.71
2022-11-12T09:00:39.746Z,12.88
2022-11-12T09:01:39.749Z,13.29
2022-11-12T09:02:39.628Z,13.55
2022-11-12T09:03:39.606Z,13.87
2022-11-12T09:04:39.518Z,13.75
2022-11-12T09:05:39.439Z,13.55
2022-11-12T09:06:39.494Z,13.54
2022-11-12T09:07:54.866Z,13.55
2022-11-12T09:08:39.388Z,13.35
2022-11-12T09:09:39.292Z,13.28
2022-11-12T09:10:39.169Z,13.53
2022-11-12T09:11:39.092Z,13.55
2022-11-12T09:12:39.033Z,13.66
2022-11-12T09:13:39.009Z,14.08
2022-11-12T09:14:38.915Z,14.42
2022-11-12T09:15:39.129Z,14.41
2022-11-12T09:16:38.800Z,14.67
2022-11-12T09:17:38.730Z,14.80
2022-11-12T09:18:38.709Z,14.83
2022-11-12T09:19:42.610Z,15.07
2022-11-12T09:20:38.553Z,15.41
2022-11-12T09:21:38.531Z,15.38
2022-11-12T09:22:38.444Z,15.41
2022-11-12T09:23:38.389Z,15.71
2022-11-12T09:24:38.428Z,15.76
2022-11-12T09:25:38.284Z,15.91
2022-11-12T09:26:38.270Z,16.04
2022-11-12T09:27:38.147Z,16.32
2022-11-12T09:28:38.123Z,16.50
2022-11-12T09:29:38.057Z,16.63
2022-11-12T09:30:38.005Z,16.59
2022-11-12T09:31:37.916Z,16.59
2022-11-12T09:32:37.871Z,16.77
2022-11-12T09:33:37.809Z,16.72
2022-11-12T09:34:37.751Z,16.57
2022-11-12T09:35:37.696Z,16.65
2022-11-12T09:36:39.937Z,16.51
2022-11-12T09:37:37.584Z,16.44
2022-11-12T09:38:37.523Z,16.55
2022-11-12T09:39:37.485Z,16.65
2022-11-12T09:40:37.503Z,16.87
2022-11-12T09:41:37.360Z,16.84
2022-11-12T09:42:38.293Z,16.72
2022-11-12T09:43:37.244Z,16.67
2022-11-12T09:44:37.187Z,16.78
2022-11-12T09:45:37.149Z,16.90
2022-11-12T09:46:37.092Z,16.99
2022-11-12T09:47:37.031Z,17.39
2022-11-12T09:48:36.965Z,17.42
2022-11-12T09:49:36.905Z,17.21
2022-11-12T09:50:36.847Z,17.00
2022-11-12T09:51:36.871Z,16.75
2022-11-12T09:52:36.773Z,16.73
2022-11-12T09:53:41.535Z,16.63
2022-11-12T09:54:36.622Z,16.67
2022-11-12T09:55:36.584Z,16.80
2022-11-12T09:56:36.612Z,16.73
2022-11-12T09:57:36.458Z,16.54
2022-11-12T09:58:36.413Z,16.25
2022-11-12T09:59:36.367Z,16.04
2022-11-12T10:00:38.201Z,15.85
2022-11-12T10:01:36.257Z,15.86
2022-11-12T10:02:36.178Z,16.16
2022-11-12T10:03:36.159Z,16.16
2022-11-12T10:04:36.064Z,16.06
2022-11-12T10:05:36.009Z,16.06
2022-11-12T10:06:36.019Z,15.84
2022-11-12T10:07:35.900Z,15.78
2022-11-12T10:08:35.915Z,15.56
2022-11-12T10:09:35.796Z,15.44
2022-11-12T10:10:35.730Z,15.27
2022-11-12T10:11:35.674Z,15.16
2022-11-12T10:12:35.708Z,15.12
2022-11-12T10:13:35.592Z,15.04
2022-11-12T10:14:35.534Z,15.04
2022-11-12T10:15:35.448Z,15.18
2022-11-12T10:16:35.412Z,15.05
2022-11-12T10:17:35.329Z,15.09
2022-11-12T10:18:35.333Z,15.04
2022-11-12T10:19:35.202Z,15.01
2022-11-12T10:20:38.703Z,15.01
2022-11-12T10:21:35.171Z,15.19
2022-11-12T10:22:35.041Z,15.01
2022-11-12T10:23:34.994Z,15.04
2022-11-12T10:24:34.955Z,14.86
2022-11-12T10:25:34.869Z,14.90
2022-11-12T10:26:34.803Z,14.91
2022-11-12T10:27:34.749Z,14.74
2022-11-12T10:28:38.708Z,14.85
2022-11-12T10:29:34.626Z,14.75
2022-11-12T10:30:34.570Z,14.75
2022-11-12T10:31:34.502Z,14.75
2022-11-12T10:32:34.484Z,14.75
2022-11-12T10:33:34.393Z,14.78
2022-11-12T10:34:34.362Z,14.74
2022-11-12T10:35:34.272Z,14.78
2022-11-12T10:36:34.241Z,14.54
2022-11-12T10:37:34.150Z,14.41
2022-11-12T10:38:34.135Z,14.44
2022-11-12T10:39:34.068Z,14.41
2022-11-12T10:40:33.996Z,14.44
2022-11-12T10:41:33.923Z,14.34
2022-11-12T10:42:33.868Z,14.45
2022-11-12T10:43:33.801Z,14.42
2022-11-12T10:44:33.836Z,14.41
2022-11-12T10:45:33.699Z,14.41
2022-11-12T10:46:33.692Z,14.26
2022-11-12T10:47:33.606Z,14.45
2022-11-12T10:48:34.229Z,14.42
2022-11-12T10:49:33.473Z,14.54
2022-11-12T10:50:33.436Z,14.56
2022-11-12T10:51:33.325Z,14.56
2022-11-12T10:52:33.264Z,14.64
2022-11-12T10:53:33.320Z,14.78
2022-11-12T10:54:33.155Z,14.83
2022-11-12T10:55:33.083Z,14.98
2022-11-12T10:56:33.011Z,15.04
2022-11-12T10:57:32.960Z,14.91
2022-11-12T10:58:32.979Z,14.72
2022-11-12T10:59:33.027Z,14.83
2022-11-12T11:00:32.869Z,14.71
2022-11-12T11:01:35.675Z,14.83
2022-11-12T11:02:32.676Z,14.94
2022-11-12T11:03:32.597Z,15.00
2022-11-12T11:04:32.529Z,15.05
2022-11-12T11:05:32.504Z,15.07
2022-11-12T11:06:32.415Z,15.03
2022-11-12T11:07:32.356Z,14.86
2022-11-12T11:08:35.903Z,14.83
2022-11-12T11:09:32.233Z,14.75
2022-11-12T11:10:32.180Z,14.59
2022-11-12T11:11:32.118Z,14.56
2022-11-12T11:12:32.152Z,14.60
2022-11-12T11:13:32.010Z,14.59
2022-11-12T11:14:31.936Z,14.69
2022-11-12T11:15:31.874Z,14.79
2022-11-12T11:16:31.908Z,14.71
2022-11-12T11:17:31.804Z,14.72
2022-11-12T11:18:31.697Z,14.75
2022-11-12T11:19:31.629Z,14.56
2022-11-12T11:20:31.626Z,14.54
2022-11-12T11:21:31.510Z,14.48
2022-11-12T11:22:31.461Z,14.49
2022-11-12T11:23:31.399Z,14.57
2022-11-12T11:24:31.332Z,14.63
2022-11-12T11:25:31.270Z,14.67
2022-11-12T11:26:31.207Z,14.64
2022-11-12T11:27:31.146Z,14.67
2022-11-12T11:28:31.088Z,14.71
2022-11-12T11:29:31.057Z,14.74
2022-11-12T11:30:30.958Z,14.79
2022-11-12T11:31:30.943Z,14.79
2022-11-12T11:32:36.112Z,14.80
2022-11-12T11:33:30.792Z,14.72
2022-11-12T11:34:30.741Z,14.71
2022-11-12T11:35:30.674Z,14.66
2022-11-12T11:36:30.627Z,14.67
2022-11-12T11:37:30.570Z,14.63
2022-11-12T11:38:30.506Z,14.74
2022-11-12T11:39:30.410Z,14.74
2022-11-12T11:40:30.352Z,14.72
2022-11-12T11:41:30.452Z,14.59
2022-11-12T11:42:30.232Z,14.63
2022-11-12T11:43:30.238Z,14.59
2022-11-12T11:44:30.293Z,14.66
2022-11-12T11:45:30.049Z,14.67
2022-11-12T11:46:29.984Z,14.69
2022-11-12T11:47:44.036Z,14.71
2022-11-12T11:48:29.965Z,14.64
2022-11-12T11:49:29.807Z,14.53
2022-11-12T11:50:29.742Z,14.54
2022-11-12T11:51:29.687Z,14.54
2022-11-12T11:52:29.632Z,14.44
2022-11-12T11:53:29.567Z,14.48
2022-11-12T11:54:29.495Z,14.41
2022-11-12T11:55:29.487Z,14.44
2022-11-12T11:56:29.371Z,14.42
2022-11-12T11:57:29.342Z,14.34
2022-11-12T11:58:29.478Z,14.41
2022-11-12T11:59:29.189Z,14.41
2022-11-12T12:00:29.173Z,14.35
2022-11-12T12:01:29.124Z,14.31
2022-11-12T12:02:29.044Z,14.29
2022-11-12T12:03:32.724Z,14.31
2022-11-12T12:04:28.993Z,14.31
2022-11-12T12:05:28.823Z,14.34
2022-11-12T12:06:28.826Z,14.26
2022-11-12T12:07:28.711Z,14.21
2022-11-12T12:08:29.004Z,14.27
2022-11-12T12:09:28.628Z,14.41
2022-11-12T12:10:53.409Z,14.42
2022-11-12T12:11:28.451Z,14.41
2022-11-12T12:12:28.397Z,14.46
2022-11-12T12:13:28.408Z,14.54
2022-11-12T12:14:28.278Z,14.49
2022-11-12T12:15:28.214Z,14.42
2022-11-12T12:16:28.163Z,14.41
2022-11-12T12:17:31.917Z,14.48
2022-11-12T12:18:28.504Z,14.49
2022-11-12T12:19:27.989Z,14.49
2022-11-12T12:20:27.997Z,14.53
2022-11-12T12:21:27.843Z,14.54
2022-11-12T12:22:27.816Z,14.42
2022-11-12T12:23:27.743Z,14.52
2022-11-12T12:24:27.689Z,14.52
2022-11-12T12:25:27.628Z,14.48
2022-11-12T12:26:27.565Z,14.41
2022-11-12T12:27:27.529Z,14.48
2022-11-12T12:28:27.727Z,14.44
2022-11-12T12:29:27.375Z,14.49
2022-11-12T12:30:27.284Z,14.46
2022-11-12T12:31:27.231Z,14.52
2022-11-12T12:32:27.219Z,14.48
2022-11-12T12:33:27.105Z,14.41
2022-11-12T12:34:27.058Z,14.36
2022-11-12T12:35:26.986Z,14.39
2022-11-12T12:36:27.028Z,14.30
2022-11-12T12:37:26.856Z,14.35
2022-11-12T12:38:27.156Z,14.44
2022-11-12T12:39:26.722Z,14.39
2022-11-12T12:40:26.696Z,14.42
2022-11-12T12:41:26.736Z,14.46
2022-11-12T12:42:26.529Z,14.36
2022-11-12T12:43:26.551Z,14.29
2022-11-12T12:44:26.468Z,14.34
2022-11-12T12:45:26.344Z,14.31
2022-11-12T12:46:26.283Z,14.35
2022-11-12T12:47:26.219Z,14.27
2022-11-12T12:48:26.445Z,14.29
2022-11-12T12:49:26.135Z,14.29
2022-11-12T12:50:26.068Z,14.19
2022-11-12T12:51:26.088Z,14.24
2022-11-12T12:52:26.004Z,14.13
2022-11-12T12:53:25.856Z,14.06
2022-11-12T12:54:25.810Z,14.05
2022-11-12T12:55:25.846Z,14.09
2022-11-12T12:56:25.741Z,14.13
2022-11-12T12:57:25.601Z,14.16
2022-11-12T12:58:25.904Z,14.12
2022-11-12T12:59:25.518Z,14.12
2022-11-12T13:00:25.477Z,14.02
2022-11-12T13:01:25.389Z,14.09
2022-11-12T13:02:25.367Z,14.05
2022-11-12T13:03:25.232Z,14.11
2022-11-12T13:04:25.313Z,14.08
2022-11-12T13:05:25.114Z,14.09
2022-11-12T13:06:25.052Z,14.17
2022-11-12T13:07:25.978Z,14.16